Time;durP1;ratioP1;P1;durP2;ratioP2;P2;SDS_P1;SDS_P2;PMS_P1;PMS_P2;Temp;Humidity;BMP_temperature;BMP_pressure;BME280_temperature;BME280_humidity;BME280_pressure;Samples;Min_cycle;Max_cycle;Signal;HPM_P1;HPM_P2
2022/06/11 00:00:34;;;;;;;;;;;;;;;;;;5089553;28;1285;-83
2022/06/11 00:02:59;;;;;;;;;;;;;;;;;;5084312;28;1932;-82
2022/06/11 00:05:28;;;;;;;;;;;;;;;;;;5075270;28;1293;-83
2022/06/11 00:07:53;;;;;;;;;;;;;;;;;;5099903;28;1176;-82
2022/06/11 00:10:19;;;;;;;;;;;;;;;;;;5093079;28;1101;-83
2022/06/11 00:12:45;;;;;;;;;;;;;;;;;;5094432;28;1242;-82
2022/06/11 00:15:10;;;;;;;;;;;;;;;;;;5067217;28;1227;-83
2022/06/11 00:17:35;;;;;;;;;;;;;;;;;;5092772;28;1330;-82
2022/06/11 00:20:01;;;;;;;;;;;;;;;;;;5087963;28;1324;-82
2022/06/11 00:22:27;;;;;;;;;;;;;;;;;;5093077;28;1944;-83
2022/06/11 00:24:52;;;;;;;;;;;;;;;;;;5068638;28;1301;-83
2022/06/11 00:27:18;;;;;;;;;;;;;;;;;;5101597;28;1131;-83
2022/06/11 00:29:44;;;;;;;;;;;;;;;;;;5099040;28;1206;-83
2022/06/11 00:32:10;;;;;;;;;;;;;;;;;;5072250;28;1246;-84
2022/06/11 00:34:36;;;;;;;;;;;;;;;;;;5079690;28;1060;-84
2022/06/11 00:37:02;;;;;;;;;;;;;;;;;;5081890;28;1259;-82
2022/06/11 00:39:31;;;;;;;;;;;;;;;;;;5076450;28;1257;-83
2022/06/11 00:42:00;;;;;;;;;;;;;;;;;;5079361;28;1893;-83
2022/06/11 00:44:26;;;;;;;;;;;;;;;;;;5082023;28;1164;-83
2022/06/11 00:47:00;;;;;;;;;;;;;;;;;;5070501;28;1185;-84
2022/06/11 00:49:37;;;;;;;;;;;;;;;;;;5078354;28;1261;-82
2022/06/11 00:52:21;;;;;;;;;;;;;;;;;;5065829;28;1302;-82
2022/06/11 00:54:53;;;;;;;;;;;;;;;;;;5072372;28;1350;-84
2022/06/11 00:57:18;;;;;;;;;;;;;;;;;;5084133;28;1265;-83
2022/06/11 00:59:48;;;;;;;;;;;;;;;;;;5076531;28;1521;-83
2022/06/11 01:02:14;;;;;;;;;;;;;;;;;;5075608;28;1957;-83
2022/06/11 01:04:39;;;;;;;;;;;;;;;;;;5048637;28;1234;-83
2022/06/11 01:07:18;;;;;;;;;;;;;;;;;;5078265;28;1199;-83
2022/06/11 01:10:10;;;;;;;;;;;;;;;;;;5080733;28;1313;-82
2022/06/11 01:12:57;;;;;;;;;;;;;;;;;;5071468;28;1153;-83
2022/06/11 01:15:33;;;;;;;;;;;;;;;;;;5075731;28;1295;-84
2022/06/11 01:18:17;;;;;;;;;;;;;;;;;;5082815;28;1148;-85
2022/06/11 01:20:50;;;;;;;;;;;;;;;;;;5071321;28;1250;-84
2022/06/11 01:23:42;;;;;;;;;;;;;;;;;;5067444;28;1984;-83
2022/06/11 01:26:17;;;;;;;;;;;;;;;;;;5070568;28;1433;-82
2022/06/11 01:28:42;;;;;;;;;;;;;;;;;;5071649;28;1298;-83
2022/06/11 01:31:12;;;;;;;;;;;;;;;;;;5081194;28;1146;-82
2022/06/11 01:33:48;;;;;;;;;;;;;;;;;;5079150;28;1469;-83
2022/06/11 01:36:33;;;;;;;;;;;;;;;;;;5071631;28;1223;-83
2022/06/11 01:39:20;;;;;;;;;;;;;;;;;;5063097;28;1284;-83
2022/06/11 01:42:02;;;;;;;;;;;;;;;;;;5068340;28;1886;-83
2022/06/11 01:44:54;;;;;;;;;;;;;;;;;;5065323;28;1231;-84
2022/06/11 01:47:19;;;;;;;;;;;;;;;;;;5074943;28;1180;-83
2022/06/11 01:49:46;;;;;;;;;;;;;;;;;;5067869;28;1096;-83
2022/06/11 01:52:12;;;;;;;;;;;;;;;;;;5082596;28;1179;-83
2022/06/11 01:54:55;;;;;;;;;;;;;;;;;;5066779;28;1172;-84
2022/06/11 01:57:30;;;;;;;;;;;;;;;;;;5072154;28;1177;-83
2022/06/11 02:00:02;;;;;;;;;;;;;;;;;;5072056;28;1349;-84
2022/06/11 02:02:43;;;;;;;;;;;;;;;;;;5075275;28;1886;-83
2022/06/11 02:05:25;;;;;;;;;;;;;;;;;;5077964;28;1167;-84
2022/06/11 02:08:02;;;;;;;;;;;;;;;;;;5068254;28;1245;-83
2022/06/11 02:10:38;;;;;;;;;;;;;;;;;;5076768;28;1226;-84
2022/06/11 02:13:17;;;;;;;;;;;;;;;;;;5082769;28;1234;-83
2022/06/11 02:15:55;;;;;;;;;;;;;;;;;;5076899;28;1112;-84
2022/06/11 02:18:22;;;;;;;;;;;;;;;;;;5081051;28;1284;-83
2022/06/11 02:20:48;;;;;;;;;;;;;;;;;;5077401;28;1151;-83
2022/06/11 02:23:15;;;;;;;;;;;;;;;;;;5076089;28;1914;-83
2022/06/11 02:25:46;;;;;;;;;;;;;;;;;;5075261;28;1294;-83
2022/06/11 02:28:15;;;;;;;;;;;;;;;;;;5075897;28;1306;-84
2022/06/11 02:30:42;;;;;;;;;;;;;;;;;;5071383;28;1214;-84
2022/06/11 02:33:09;;;;;;;;;;;;;;;;;;5091690;28;1215;-82
2022/06/11 02:35:39;;;;;;;;;;;;;;;;;;5074151;28;1199;-83
2022/06/11 02:38:08;;;;;;;;;;;;;;;;;;5086835;28;1388;-83
2022/06/11 02:40:41;;;;;;;;;;;;;;;;;;5073377;28;1223;-83
2022/06/11 02:43:10;;;;;;;;;;;;;;;;;;5087892;28;1898;-84
2022/06/11 02:45:36;;;;;;;;;;;;;;;;;;5079020;28;1183;-83
2022/06/11 02:48:01;;;;;;;;;;;;;;;;;;5074623;28;1320;-83
2022/06/11 02:50:29;;;;;;;;;;;;;;;;;;5081757;28;1183;-83
2022/06/11 02:52:55;;;;;;;;;;;;;;;;;;5076066;28;1281;-83
2022/06/11 02:55:20;;;;;;;;;;;;;;;;;;5082211;28;1207;-84
2022/06/11 02:57:45;;;;;;;;;;;;;;;;;;5070185;28;1289;-84
2022/06/11 03:00:14;;;;;;;;;;;;;;;;;;5077962;28;1203;-83
2022/06/11 03:02:39;;;;;;;;;;;;;;;;;;5084642;28;1953;-83
2022/06/11 03:05:05;;;;;;;;;;;;;;;;;;5055488;28;1245;-83
2022/06/11 03:07:30;;;;;;;;;;;;;;;;;;5063358;28;1269;-84
2022/06/11 03:09:56;;;;;;;;;;;;;;;;;;5066566;28;1211;-84
2022/06/11 03:12:21;;;;;;;;;;;;;;;;;;5079094;28;1220;-84
2022/06/11 03:14:47;;;;;;;;;;;;;;;;;;5059248;28;1308;-84
2022/06/11 03:17:14;;;;;;;;;;;;;;;;;;5079585;28;1359;-83
2022/06/11 03:19:39;;;;;;;;;;;;;;;;;;5082807;28;1172;-83
2022/06/11 03:22:05;;;;;;;;;;;;;;;;;;5078429;28;1898;-83
2022/06/11 03:24:30;;;;;;;;;;;;;;;;;;5073547;28;1096;-83
2022/06/11 03:26:56;;;;;;;;;;;;;;;;;;5073918;28;1234;-83
2022/06/11 03:29:23;;;;;;;;;;;;;;;;;;5073175;28;1346;-83
2022/06/11 03:31:52;;;;;;;;;;;;;;;;;;5080924;28;1257;-83
2022/06/11 03:34:18;;;;;;;;;;;;;;;;;;5073187;28;1186;-83
2022/06/11 03:36:45;;;;;;;;;;;;;;;;;;5071994;28;1218;-84
2022/06/11 03:39:12;;;;;;;;;;;;;;;;;;5082527;28;1227;-84
2022/06/11 03:41:38;;;;;;;;;;;;;;;;;;5077814;28;1954;-84
2022/06/11 03:44:03;;;;;;;;;;;;;;;;;;5073873;28;1336;-84
2022/06/11 03:46:29;;;;;;;;;;;;;;;;;;5081262;28;1156;-83
2022/06/11 03:48:55;;;;;;;;;;;;;;;;;;5073876;28;1156;-84
2022/06/11 03:51:20;;;;;;;;;;;;;;;;;;5056208;28;1322;-84
2022/06/11 03:53:50;;;;;;;;;;;;;;;;;;5084625;28;1163;-84
2022/06/11 03:56:16;;;;;;;;;;;;;;;;;;5063706;28;1172;-84
2022/06/11 03:58:42;;;;;;;;;;;;;;;;;;5080685;28;1191;-83
2022/06/11 04:01:14;;;;;;;;;;;;;;;;;;5060420;28;1187;-83
2022/06/11 04:03:41;;;;;;;;;;;;;;;;;;5085025;28;1238;-82
2022/06/11 04:06:07;;;;;;;;;;;;;;;;;;5076622;28;1186;-83
2022/06/11 04:08:36;;;;;;;;;;;;;;;;;;5084118;28;1279;-84
2022/06/11 04:11:02;;;;;;;;;;;;;;;;;;5073801;28;1210;-84
2022/06/11 04:13:29;;;;;;;;;;;;;;;;;;5086738;28;1171;-85
2022/06/11 04:15:56;;;;;;;;;;;;;;;;;;5075154;28;1361;-84
2022/06/11 04:18:33;;;;;;;;;;;;;;;;;;5078406;28;1183;-84
2022/06/11 04:20:58;;;;;;;;;;;;;;;;;;5070725;28;1297;-84
2022/06/11 04:23:24;;;;;;;;;;;;;;;;;;5070713;28;1987;-84
2022/06/11 04:25:51;;;;;;;;;;;;;;;;;;5078143;28;1319;-84
2022/06/11 04:28:17;;;;;;;;;;;;;;;;;;5050761;28;1181;-84
2022/06/11 04:30:42;;;;;;;;;;;;;;;;;;5088129;28;1152;-83
2022/06/11 04:33:07;;;;;;;;;;;;;;;;;;5084660;28;1352;-84
2022/06/11 04:35:33;;;;;;;;;;;;;;;;;;5059991;28;1250;-84
2022/06/11 04:37:58;;;;;;;;;;;;;;;;;;5075952;28;1303;-83
2022/06/11 04:40:24;;;;;;;;;;;;;;;;;;5077855;28;1203;-84
2022/06/11 04:42:52;;;;;;;;;;;;;;;;;;5085292;28;1894;-83
2022/06/11 04:45:18;;;;;;;;;;;;;;;;;;5062652;28;1116;-84
2022/06/11 04:47:44;;;;;;;;;;;;;;;;;;5065656;28;1224;-84
2022/06/11 04:50:11;;;;;;;;;;;;;;;;;;5071590;28;1188;-83
2022/06/11 04:52:37;;;;;;;;;;;;;;;;;;5086069;28;1330;-83
2022/06/11 04:55:03;;;;;;;;;;;;;;;;;;5073045;28;1407;-84
2022/06/11 04:57:29;;;;;;;;;;;;;;;;;;5078482;28;1278;-84
2022/06/11 04:59:55;;;;;;;;;;;;;;;;;;5061229;28;1300;-83
2022/06/11 05:02:22;;;;;;;;;;;;;;;;;;5071651;28;1893;-83
2022/06/11 05:04:47;;;;;;;;;;;;;;;;;;5068972;28;1300;-83
2022/06/11 05:07:12;;;;;;;;;;;;;;;;;;5065267;28;1183;-83
2022/06/11 05:09:38;;;;;;;;;;;;;;;;;;5059714;28;1208;-84
2022/06/11 05:12:03;;;;;;;;;;;;;;;;;;5086090;28;1175;-83
2022/06/11 05:14:29;;;;;;;;;;;;;;;;;;5077101;28;1248;-83
2022/06/11 05:16:59;;;;;;;;;;;;;;;;;;5069893;28;1132;-84
2022/06/11 05:19:25;;;;;;;;;;;;;;;;;;5077771;28;1357;-84
2022/06/11 05:21:51;;;;;;;;;;;;;;;;;;5081146;28;1914;-83
2022/06/11 05:24:19;;;;;;;;;;;;;;;;;;5068285;28;1139;-83
2022/06/11 05:26:51;;;;;;;;;;;;;;;;;;5072200;28;1211;-84
2022/06/11 05:29:26;;;;;;;;;;;;;;;;;;5067774;28;1243;-83
2022/06/11 05:31:51;;;;;;;;;;;;;;;;;;5075333;28;1144;-83
2022/06/11 05:34:17;;;;;;;;;;;;;;;;;;5082182;28;1088;-84
2022/06/11 05:36:42;;;;;;;;;;;;;;;;;;5079625;28;1226;-83
2022/06/11 05:39:07;;;;;;;;;;;;;;;;;;5072539;28;1074;-83
2022/06/11 05:41:33;;;;;;;;;;;;;;;;;;5070133;28;1893;-83
2022/06/11 05:43:59;;;;;;;;;;;;;;;;;;5071421;28;1104;-83
2022/06/11 05:46:26;;;;;;;;;;;;;;;;;;5055667;28;1187;-84
2022/06/11 05:48:54;;;;;;;;;;;;;;;;;;5055522;28;1226;-83
2022/06/11 05:51:22;;;;;;;;;;;;;;;;;;5080243;28;1132;-83
2022/06/11 05:53:49;;;;;;;;;;;;;;;;;;5076235;28;1229;-84
2022/06/11 05:56:15;;;;;;;;;;;;;;;;;;5084784;28;1368;-83
2022/06/11 05:58:43;;;;;;;;;;;;;;;;;;5081341;28;1292;-84
2022/06/11 06:01:10;;;;;;;;;;;;;;;;;;5085527;28;1293;-83
2022/06/11 06:03:35;;;;;;;;;;;;;;;;;;5081053;28;1894;-82
2022/06/11 06:06:02;;;;;;;;;;;;;;;;;;5061168;28;1211;-83
2022/06/11 06:08:36;;;;;;;;;;;;;;;;;;5077857;28;1155;-82
2022/06/11 06:11:02;;;;;;;;;;;;;;;;;;5081215;28;1183;-80
2022/06/11 06:16:12;;;;;;;;;;;;;;;;;;5075529;28;1051;-79
2022/06/11 06:18:37;;;;;;;;;;;;;;;;;;5065490;28;1312;-79
2022/06/11 06:21:03;;;;;;;;;;;;;;;;;;5060387;28;1215;-79
2022/06/11 06:23:36;;;;;;;;;;;;;;;;;;5061025;28;1912;-78
2022/06/11 06:26:05;;;;;;;;;;;;;;;;;;5063434;28;1184;-78
2022/06/11 06:28:34;;;;;;;;;;;;;;;;;;5077632;28;1355;-79
2022/06/11 06:31:00;;;;;;;;;;;;;;;;;;5061595;28;1281;-79
2022/06/11 06:33:30;;;;;;;;;;;;;;;;;;5042925;28;1165;-79
2022/06/11 06:35:55;;;;;;;;;;;;;;;;;;5070077;28;1191;-80
2022/06/11 06:38:20;;;;;;;;;;;;;;;;;;5081340;28;1175;-79
2022/06/11 06:40:46;;;;;;;;;;;;;;;;;;5081083;28;997;-79
2022/06/11 06:43:11;;;;;;;;;;;;;;;;;;5069220;28;1949;-79
2022/06/11 06:45:36;;;;;;;;;;;;;;;;;;5068073;28;1129;-80
2022/06/11 06:48:02;;;;;;;;;;;;;;;;;;5063192;28;1147;-80
2022/06/11 06:50:28;;;;;;;;;;;;;;;;;;5061100;28;1152;-78
2022/06/11 06:52:53;;;;;;;;;;;;;;;;;;5067911;28;1227;-79
2022/06/11 06:55:18;;;;;;;;;;;;;;;;;;5081913;28;1124;-80
2022/06/11 06:57:43;;;;;;;;;;;;;;;;;;5070822;28;1324;-79
2022/06/11 07:00:10;;;;;;;;;;;;;;;;;;5063605;28;1175;-79
2022/06/11 07:02:36;;;;;;;;;;;;;;;;;;5086226;28;1893;-79
2022/06/11 07:05:01;;;;;;;;;;;;;;;;;;5082678;28;1247;-79
2022/06/11 07:07:26;;;;;;;;;;;;;;;;;;5081543;28;1211;-80
2022/06/11 07:09:53;;;;;;;;;;;;;;;;;;5067598;28;1248;-79
2022/06/11 07:12:19;;;;;;;;;;;;;;;;;;5082270;28;1290;-79
2022/06/11 07:14:44;;;;;;;;;;;;;;;;;;5085551;28;1158;-80
2022/06/11 07:17:11;;;;;;;;;;;;;;;;;;5077920;28;1215;-79
2022/06/11 07:19:39;;;;;;;;;;;;;;;;;;5067705;28;1308;-80
2022/06/11 07:22:15;;;;;;;;;;;;;;;;;;5085492;28;1910;-79
2022/06/11 07:24:41;;;;;;;;;;;;;;;;;;5073814;28;1166;-79
2022/06/11 07:27:14;;;;;;;;;;;;;;;;;;5083121;28;1199;-79
2022/06/11 07:29:57;;;;;;;;;;;;;;;;;;5086682;28;1144;-79
2022/06/11 07:32:24;;;;;;;;;;;;;;;;;;5080662;28;1288;-79
2022/06/11 07:34:49;;;;;;;;;;;;;;;;;;5085929;28;1244;-80
2022/06/11 07:37:15;;;;;;;;;;;;;;;;;;5067282;28;1187;-79
2022/06/11 07:39:40;;;;;;;;;;;;;;;;;;5062155;28;1221;-79
2022/06/11 07:42:07;;;;;;;;;;;;;;;;;;5081449;28;1886;-84
2022/06/11 07:44:32;;;;;;;;;;;;;;;;;;5077066;28;1201;-84
2022/06/11 07:46:57;;;;;;;;;;;;;;;;;;5072611;28;1156;-85
2022/06/11 07:49:23;;;;;;;;;;;;;;;;;;5068157;28;1116;-84
2022/06/11 07:51:48;;;;;;;;;;;;;;;;;;5068332;28;1261;-81
2022/06/11 07:54:14;;;;;;;;;;;;;;;;;;5052506;28;1325;-81
2022/06/11 07:56:39;;;;;;;;;;;;;;;;;;5079763;28;1369;-80
2022/06/11 07:59:05;;;;;;;;;;;;;;;;;;5071685;28;1113;-81
2022/06/11 08:01:31;;;;;;;;;;;;;;;;;;5073344;28;1890;-81
2022/06/11 08:03:56;;;;;;;;;;;;;;;;;;5073664;28;1128;-81
2022/06/11 08:06:21;;;;;;;;;;;;;;;;;;5073069;28;1208;-81
2022/06/11 08:08:49;;;;;;;;;;;;;;;;;;5058552;28;1281;-80
2022/06/11 08:11:18;;;;;;;;;;;;;;;;;;5086081;28;1251;-80
2022/06/11 08:13:44;;;;;;;;;;;;;;;;;;5085577;28;1207;-81
2022/06/11 08:16:10;;;;;;;;;;;;;;;;;;5082402;28;1168;-75
2022/06/11 08:18:36;;;;;;;;;;;;;;;;;;5082067;28;1186;-78
2022/06/11 08:21:05;;;;;;;;;;;;;;;;;;5078139;28;1186;-77
2022/06/11 08:23:36;;;;;;;;;;;;;;;;;;5055062;28;1919;-78
2022/06/11 08:26:02;;;;;;;;;;;;;;;;;;5085148;28;1267;-78
2022/06/11 08:28:27;;;;;;;;;;;;;;;;;;5084495;28;1010;-77
2022/06/11 08:30:52;;;;;;;;;;;;;;;;;;5069528;28;1389;-81
2022/06/11 08:33:18;;;;;;;;;;;;;;;;;;5085397;28;1228;-82
2022/06/11 08:35:44;;;;;;;;;;;;;;;;;;5084390;28;1261;-77
2022/06/11 08:38:10;;;;;;;;;;;;;;;;;;5073132;28;1194;-77
2022/06/11 08:40:40;;;;;;;;;;;;;;;;;;5082212;28;1297;-79
2022/06/11 08:43:09;;;;;;;;;;;;;;;;;;5072359;28;1941;-78
2022/06/11 08:45:41;;;;;;;;;;;;;;;;;;5067553;28;1176;-79
2022/06/11 08:48:27;;;;;;;;;;;;;;;;;;5068415;28;1257;-77
2022/06/11 08:51:04;;;;;;;;;;;;;;;;;;5073939;28;1203;-76
2022/06/11 08:53:38;;;;;;;;;;;;;;;;;;5082851;28;1364;-78
2022/06/11 08:56:04;;;;;;;;;;;;;;;;;;5088549;28;1178;-84
2022/06/11 08:58:50;;;;;;;;;;;;;;;;;;5072557;28;1221;-86
2022/06/11 09:01:29;;;;;;;;;;;;;;;;;;5081705;28;1156;-85
2022/06/11 09:04:20;;;;;;;;;;;;;;;;;;5089907;28;1256;-86
2022/06/11 09:06:55;;;;;;;;;;;;;;;;;;5087473;28;1078;-85
2022/06/11 09:09:29;;;;;;;;;;;;;;;;;;5078737;28;1127;-85
2022/06/11 09:12:03;;;;;;;;;;;;;;;;;;5068216;28;1133;-86
2022/06/11 09:14:28;;;;;;;;;;;;;;;;;;5065591;28;1369;-87
2022/06/11 09:17:00;;;;;;;;;;;;;;;;;;5074444;28;1301;-86
2022/06/11 09:19:44;;;;;;;;;;;;;;;;;;5080834;28;1322;-87
2022/06/11 09:22:28;;;;;;;;;;;;;;;;;;5081269;28;2000;-85
2022/06/11 09:25:05;;;;;;;;;;;;;;;;;;5081970;28;1207;-88
2022/06/11 09:27:49;;;;;;;;;;;;;;;;;;5084111;28;1147;-87
2022/06/11 09:30:24;;;;;;;;;;;;;;;;;;5076250;28;1197;-87
2022/06/11 09:32:53;;;;;;;;;;;;;;;;;;5075197;28;1334;-86
2022/06/11 09:35:19;;;;;;;;;;;;;;;;;;5087105;28;1266;-86
2022/06/11 09:38:04;;;;;;;;;;;;;;;;;;5083371;28;1104;-86
2022/06/11 09:40:35;;;;;;;;;;;;;;;;;;5066495;28;1196;-83
2022/06/11 09:43:00;;;;;;;;;;;;;;;;;;5067882;28;1987;-87
2022/06/11 09:45:35;;;;;;;;;;;;;;;;;;5066507;28;1337;-86
2022/06/11 09:48:12;;;;;;;;;;;;;;;;;;5071262;28;1156;-85
2022/06/11 09:50:46;;;;;;;;;;;;;;;;;;5074823;28;1255;-86
2022/06/11 09:53:30;;;;;;;;;;;;;;;;;;5064963;28;1275;-86
2022/06/11 09:56:12;;;;;;;;;;;;;;;;;;5067352;28;1195;-89
2022/06/11 09:58:44;;;;;;;;;;;;;;;;;;5064923;28;1241;-87
2022/06/11 10:01:12;;;;;;;;;;;;;;;;;;5067733;28;1269;-86
2022/06/11 10:03:44;;;;;;;;;;;;;;;;;;5066662;28;1898;-86
2022/06/11 10:06:09;;;;;;;;;;;;;;;;;;5080526;28;1230;-88
2022/06/11 10:08:35;;;;;;;;;;;;;;;;;;5079398;28;1212;-86
2022/06/11 10:11:04;;;;;;;;;;;;;;;;;;5073974;28;1292;-87
2022/06/11 10:13:37;;;;;;;;;;;;;;;;;;5076319;28;1281;-81
2022/06/11 10:16:08;;;;;;;;;;;;;;;;;;5077381;28;1215;-76
2022/06/11 10:18:36;;;;;;;;;;;;;;;;;;5070129;28;1246;-85
2022/06/11 10:21:09;;;;;;;;;;;;;;;;;;5075559;28;1147;-87
2022/06/11 10:23:40;;;;;;;;;;;;;;;;;;5068473;28;1933;-89
2022/06/11 10:26:25;;;;;;;;;;;;;;;;;;5077102;28;1284;-87
2022/06/11 10:28:53;;;;;;;;;;;;;;;;;;5083417;28;1330;-88
2022/06/11 10:31:39;;;;;;;;;;;;;;;;;;5080463;28;1210;-86
2022/06/11 10:34:19;;;;;;;;;;;;;;;;;;5083104;28;1275;-88
2022/06/11 10:37:07;;;;;;;;;;;;;;;;;;5075777;28;1343;-88
2022/06/11 10:39:35;;;;;;;;;;;;;;;;;;5077858;28;1242;-86
2022/06/11 10:42:04;;;;;;;;;;;;;;;;;;5074882;28;1890;-86
2022/06/11 10:44:40;;;;;;;;;;;;;;;;;;5083601;28;1312;-86
2022/06/11 10:47:34;;;;;;;;;;;;;;;;;;5087023;28;1119;-86
2022/06/11 10:49:59;;;;;;;;;;;;;;;;;;5083493;28;1172;-88
2022/06/11 10:52:37;;;;;;;;;;;;;;;;;;5069052;28;1228;-86
2022/06/11 10:55:04;;;;;;;;;;;;;;;;;;5076591;28;1179;-88
2022/06/11 10:57:34;;;;;;;;;;;;;;;;;;5073337;28;1158;-85
2022/06/11 11:00:10;;;;;;;;;;;;;;;;;;5081180;28;1230;-84
2022/06/11 11:02:44;;;;;;;;;;;;;;;;;;5073487;28;1917;-82
2022/06/11 11:05:10;;;;;;;;;;;;;;;;;;5079957;28;1257;-84
2022/06/11 11:07:51;;;;;;;;;;;;;;;;;;5072161;28;1363;-84
2022/06/11 11:10:37;;;;;;;;;;;;;;;;;;5081327;28;1274;-84
2022/06/11 11:13:13;;;;;;;;;;;;;;;;;;5067342;28;1349;-83
2022/06/11 11:15:40;;;;;;;;;;;;;;;;;;5080550;28;1136;-80
2022/06/11 11:18:11;;;;;;;;;;;;;;;;;;5086249;28;1270;-79
2022/06/11 11:20:42;;;;;;;;;;;;;;;;;;5087204;28;1240;-78
2022/06/11 11:23:10;;;;;;;;;;;;;;;;;;5079990;28;1999;-76
2022/06/11 11:25:40;;;;;;;;;;;;;;;;;;5079747;28;1284;-78
2022/06/11 11:28:14;;;;;;;;;;;;;;;;;;5075967;28;1336;-80
2022/06/11 11:30:39;;;;;;;;;;;;;;;;;;5083371;28;1353;-77
2022/06/11 11:33:29;;;;;;;;;;;;;;;;;;5070536;28;1257;-77
2022/06/11 11:36:20;;;;;;;;;;;;;;;;;;5086829;28;1092;-80
2022/06/11 11:38:57;;;;;;;;;;;;;;;;;;5061418;28;1361;-77
2022/06/11 11:41:25;;;;;;;;;;;;;;;;;;5068594;28;1113;-76
2022/06/11 11:43:51;;;;;;;;;;;;;;;;;;5061622;28;1886;-83
2022/06/11 11:46:23;;;;;;;;;;;;;;;;;;5075689;28;1045;-81
2022/06/11 11:48:57;;;;;;;;;;;;;;;;;;5084467;28;1241;-82
2022/06/11 11:51:48;;;;;;;;;;;;;;;;;;5088351;28;1196;-78
2022/06/11 11:54:17;;;;;;;;;;;;;;;;;;5064269;28;1218;-79
2022/06/11 11:57:00;;;;;;;;;;;;;;;;;;5077821;28;1186;-78
2022/06/11 11:59:39;;;;;;;;;;;;;;;;;;5079825;28;1237;-76
2022/06/11 12:02:13;;;;;;;;;;;;;;;;;;5069170;28;1882;-80
2022/06/11 12:04:59;;;;;;;;;;;;;;;;;;5087154;28;1346;-78
2022/06/11 12:07:30;;;;;;;;;;;;;;;;;;5072197;28;1262;-81
2022/06/11 12:10:02;;;;;;;;;;;;;;;;;;5066869;28;1269;-79
2022/06/11 12:12:30;;;;;;;;;;;;;;;;;;5065139;28;1149;-79
2022/06/11 12:15:01;;;;;;;;;;;;;;;;;;5069303;28;1104;-78
2022/06/11 12:17:41;;;;;;;;;;;;;;;;;;5073234;28;1208;-80
2022/06/11 12:20:40;;;;;;;;;;;;;;;;;;5077984;28;1285;-77
2022/06/11 12:23:08;;;;;;;;;;;;;;;;;;5054088;28;1971;-79
2022/06/11 12:25:40;;;;;;;;;;;;;;;;;;5065504;28;1203;-80
2022/06/11 12:28:10;;;;;;;;;;;;;;;;;;5077787;28;1361;-79
2022/06/11 12:30:36;;;;;;;;;;;;;;;;;;5071787;28;1208;-78
2022/06/11 12:33:01;;;;;;;;;;;;;;;;;;5047403;28;1157;-76
2022/06/11 12:35:29;;;;;;;;;;;;;;;;;;5066752;28;1261;-80
2022/06/11 12:38:55;;;;;;;;;;;;;;;;;;5079277;28;1168;-82
2022/06/11 12:41:43;;;;;;;;;;;;;;;;;;5064854;28;1256;-79
2022/06/11 12:44:34;;;;;;;;;;;;;;;;;;5050655;28;1226;-80
2022/06/11 12:47:03;;;;;;;;;;;;;;;;;;5080124;28;1349;-78
2022/06/11 12:49:36;;;;;;;;;;;;;;;;;;5084965;28;1297;-79
2022/06/11 12:52:11;;;;;;;;;;;;;;;;;;5082696;28;1104;-80
2022/06/11 12:54:45;;;;;;;;;;;;;;;;;;5066712;28;1253;-83
2022/06/11 12:57:25;;;;;;;;;;;;;;;;;;5071197;28;1342;-81
2022/06/11 12:59:53;;;;;;;;;;;;;;;;;;5081390;28;1326;-77
2022/06/11 13:02:18;;;;;;;;;;;;;;;;;;5077232;28;1889;-85
2022/06/11 13:05:03;;;;;;;;;;;;;;;;;;5069614;28;1361;-88
2022/06/11 13:07:47;;;;;;;;;;;;;;;;;;5083472;28;1395;-87
2022/06/11 13:10:29;;;;;;;;;;;;;;;;;;5070630;28;1189;-86
2022/06/11 13:12:55;;;;;;;;;;;;;;;;;;5070750;28;1190;-85
2022/06/11 13:15:34;;;;;;;;;;;;;;;;;;5082518;28;1368;-86
2022/06/11 13:18:11;;;;;;;;;;;;;;;;;;5084398;28;1028;-86
2022/06/11 13:20:42;;;;;;;;;;;;;;;;;;5074373;28;1205;-86
2022/06/11 13:23:22;;;;;;;;;;;;;;;;;;5062942;28;1902;-86
2022/06/11 13:25:55;;;;;;;;;;;;;;;;;;5073863;28;1126;-86
2022/06/11 13:28:24;;;;;;;;;;;;;;;;;;5082267;28;1111;-86
2022/06/11 13:30:57;;;;;;;;;;;;;;;;;;5083589;28;1349;-87
2022/06/11 13:33:27;;;;;;;;;;;;;;;;;;5088101;28;1277;-88
2022/06/11 13:35:52;;;;;;;;;;;;;;;;;;5085288;28;1296;-86
2022/06/11 13:38:36;;;;;;;;;;;;;;;;;;5080765;28;1205;-83
2022/06/11 13:41:31;;;;;;;;;;;;;;;;;;5071028;28;1254;-83
2022/06/11 13:44:10;;;;;;;;;;;;;;;;;;5065575;28;1947;-82
2022/06/11 13:46:56;;;;;;;;;;;;;;;;;;5084073;28;1301;-86
2022/06/11 13:49:37;;;;;;;;;;;;;;;;;;5084762;28;1356;-86
2022/06/11 13:52:06;;;;;;;;;;;;;;;;;;5073488;28;1253;-85
2022/06/11 13:57:27;;;;;;;;;;;;;;;;;;5068098;28;1437;-85
2022/06/11 14:00:05;;;;;;;;;;;;;;;;;;5075058;28;1332;-84
2022/06/11 14:02:30;;;;;;;;;;;;;;;;;;5069424;28;1950;-80
2022/06/11 14:04:58;;;;;;;;;;;;;;;;;;5078119;28;1223;-78
2022/06/11 14:07:25;;;;;;;;;;;;;;;;;;5068583;28;1222;-79
2022/06/11 14:10:22;;;;;;;;;;;;;;;;;;5072054;28;1485;-82
2022/06/11 14:12:55;;;;;;;;;;;;;;;;;;5063868;28;1089;-79
2022/06/11 14:15:22;;;;;;;;;;;;;;;;;;5073409;28;1202;-79
2022/06/11 14:17:52;;;;;;;;;;;;;;;;;;5074067;28;1284;-80
2022/06/11 14:20:17;;;;;;;;;;;;;;;;;;5065268;28;1283;-78
2022/06/11 14:22:54;;;;;;;;;;;;;;;;;;5081324;28;1921;-79
2022/06/11 14:25:38;;;;;;;;;;;;;;;;;;5079467;28;1237;-79
2022/06/11 14:28:16;;;;;;;;;;;;;;;;;;5074598;28;1325;-79
2022/06/11 14:30:56;;;;;;;;;;;;;;;;;;5084489;28;1237;-80
2022/06/11 14:33:26;;;;;;;;;;;;;;;;;;5084331;28;1202;-80
2022/06/11 14:35:57;;;;;;;;;;;;;;;;;;5084740;28;1217;-80
2022/06/11 14:38:22;;;;;;;;;;;;;;;;;;5084782;28;1221;-80
2022/06/11 14:40:49;;;;;;;;;;;;;;;;;;5076237;28;1297;-78
2022/06/11 14:43:16;;;;;;;;;;;;;;;;;;5078810;28;1897;-79
2022/06/11 14:45:45;;;;;;;;;;;;;;;;;;5084936;28;1167;-79
2022/06/11 14:48:11;;;;;;;;;;;;;;;;;;5083290;28;1253;-80
2022/06/11 14:50:40;;;;;;;;;;;;;;;;;;5070967;28;1213;-79
2022/06/11 14:53:15;;;;;;;;;;;;;;;;;;5064987;28;1096;-81
2022/06/11 14:55:41;;;;;;;;;;;;;;;;;;5077075;28;1218;-78
2022/06/11 14:58:37;;;;;;;;;;;;;;;;;;5060866;28;1212;-79
2022/06/11 15:01:05;;;;;;;;;;;;;;;;;;5070940;28;1307;-79
2022/06/11 15:03:49;;;;;;;;;;;;;;;;;;5084909;28;1922;-79
2022/06/11 15:06:24;;;;;;;;;;;;;;;;;;5081866;28;1297;-79
2022/06/11 15:09:08;;;;;;;;;;;;;;;;;;5080764;28;1152;-78
2022/06/11 15:11:52;;;;;;;;;;;;;;;;;;5068586;28;1230;-79
2022/06/11 15:14:18;;;;;;;;;;;;;;;;;;5073775;28;1134;-76
2022/06/11 15:16:45;;;;;;;;;;;;;;;;;;5085804;28;1337;-76
2022/06/11 15:19:15;;;;;;;;;;;;;;;;;;5064447;28;1298;-76
2022/06/11 15:21:48;;;;;;;;;;;;;;;;;;5068180;28;1207;-76
2022/06/11 15:24:32;;;;;;;;;;;;;;;;;;5060928;28;1313;-77
2022/06/11 15:27:01;;;;;;;;;;;;;;;;;;5064099;28;1136;-76
2022/06/11 15:29:28;;;;;;;;;;;;;;;;;;5067329;28;1200;-78
2022/06/11 15:32:13;;;;;;;;;;;;;;;;;;5066954;28;1246;-76
2022/06/11 15:34:41;;;;;;;;;;;;;;;;;;5066297;28;1213;-78
2022/06/11 15:37:22;;;;;;;;;;;;;;;;;;5067321;28;1214;-78
2022/06/11 15:39:54;;;;;;;;;;;;;;;;;;5063296;28;1163;-78
2022/06/11 15:42:39;;;;;;;;;;;;;;;;;;5065155;28;1957;-78
2022/06/11 15:45:06;;;;;;;;;;;;;;;;;;5066056;28;1307;-77
2022/06/11 15:47:33;;;;;;;;;;;;;;;;;;5066059;28;1180;-77
2022/06/11 15:50:05;;;;;;;;;;;;;;;;;;5065325;28;1439;-78
2022/06/11 15:52:35;;;;;;;;;;;;;;;;;;5064431;28;1199;-77
2022/06/11 15:55:12;;;;;;;;;;;;;;;;;;5060213;28;1416;-75
2022/06/11 15:57:44;;;;;;;;;;;;;;;;;;5063960;28;1196;-77
2022/06/11 16:00:31;;;;;;;;;;;;;;;;;;5063382;28;1213;-77
2022/06/11 16:02:59;;;;;;;;;;;;;;;;;;5066400;28;1965;-77
2022/06/11 16:05:27;;;;;;;;;;;;;;;;;;5060476;28;1168;-77
2022/06/11 16:07:53;;;;;;;;;;;;;;;;;;5086955;28;1124;-77
2022/06/11 16:10:21;;;;;;;;;;;;;;;;;;5081861;28;1241;-78
2022/06/11 16:12:47;;;;;;;;;;;;;;;;;;5076838;28;1067;-78
2022/06/11 16:15:17;;;;;;;;;;;;;;;;;;5063029;28;1325;-77
2022/06/11 16:17:44;;;;;;;;;;;;;;;;;;5066686;28;1336;-77
2022/06/11 16:20:26;;;;;;;;;;;;;;;;;;5070072;28;1375;-77
2022/06/11 16:22:53;;;;;;;;;;;;;;;;;;5077454;28;1914;-78
2022/06/11 16:25:39;;;;;;;;;;;;;;;;;;5078525;28;1186;-79
2022/06/11 16:28:10;;;;;;;;;;;;;;;;;;5078267;28;1167;-79
2022/06/11 16:30:36;;;;;;;;;;;;;;;;;;5082146;28;1180;-79
2022/06/11 16:33:03;;;;;;;;;;;;;;;;;;5078761;28;1256;-80
2022/06/11 16:35:38;;;;;;;;;;;;;;;;;;5071981;28;1202;-79
2022/06/11 16:38:37;;;;;;;;;;;;;;;;;;5083682;28;1156;-79
2022/06/11 16:42:46;;;;;;;;;;;;;;;;;;5068101;28;1168;-79
2022/06/11 16:44:10;;;;;;;;;;;;;;;;;;5070463;28;1979;-78
2022/06/11 16:46:35;;;;;;;;;;;;;;;;;;5066231;28;1229;-79
2022/06/11 16:49:00;;;;;;;;;;;;;;;;;;5068142;28;1187;-79
2022/06/11 16:57:00;;;;;;;;;;;;;;;;;;5075464;28;1025;-79
2022/06/11 16:59:31;;;;;;;;;;;;;;;;;;5067924;28;1147;-79
2022/06/11 17:03:05;;;;;;;;;;;;;;;;;;5064216;28;1910;-81
2022/06/11 17:04:52;;;;;;;;;;;;;;;;;;5081151;28;1346;-77
2022/06/11 17:07:27;;;;;;;;;;;;;;;;;;5070187;28;1348;-78
2022/06/11 17:09:54;;;;;;;;;;;;;;;;;;5068424;28;1289;-78
2022/06/11 17:12:19;;;;;;;;;;;;;;;;;;5072655;28;1396;-77
2022/06/11 17:15:04;;;;;;;;;;;;;;;;;;5081903;28;1132;-77
2022/06/11 17:17:31;;;;;;;;;;;;;;;;;;5083637;28;1181;-77
2022/06/11 17:19:57;;;;;;;;;;;;;;;;;;5087190;28;1148;-77
2022/06/11 17:22:25;;;;;;;;;;;;;;;;;;5056784;28;1905;-77
2022/06/11 17:24:52;;;;;;;;;;;;;;;;;;5063771;28;1223;-78
2022/06/11 17:27:32;;;;;;;;;;;;;;;;;;5059058;28;1250;-78
2022/06/11 17:29:57;;;;;;;;;;;;;;;;;;5063229;28;1447;-77
2022/06/11 17:32:24;;;;;;;;;;;;;;;;;;5047538;28;1147;-78
2022/06/11 17:34:50;;;;;;;;;;;;;;;;;;5074702;28;1202;-78
2022/06/11 17:37:26;;;;;;;;;;;;;;;;;;5083563;28;1178;-78
2022/06/11 17:39:52;;;;;;;;;;;;;;;;;;5082113;28;1178;-76
2022/06/11 17:42:17;;;;;;;;;;;;;;;;;;5083208;28;1956;-77